sensor_id;sensor_type;location;lat;lon;timestamp;P1;durP1;ratioP1;P2;durP2;ratioP2
55146;SDS011;41039;49.830;23.988;2023-01-15T00:01:39;10.85;;;7.38;;
55146;SDS011;41039;49.830;23.988;2023-01-15T00:04:05;11.60;;;7.20;;
55146;SDS011;41039;49.830;23.988;2023-01-15T00:06:31;15.68;;;9.30;;
55146;SDS011;41039;49.830;23.988;2023-01-15T00:08:58;9.50;;;5.28;;
55146;SDS011;41039;49.830;23.988;2023-01-15T00:11:24;8.80;;;5.63;;
55146;SDS011;41039;49.830;23.988;2023-01-15T00:13:49;7.25;;;4.43;;
55146;SDS011;41039;49.830;23.988;2023-01-15T00:16:16;7.43;;;4.40;;
55146;SDS011;41039;49.830;23.988;2023-01-15T00:18:42;7.63;;;4.72;;
55146;SDS011;41039;49.830;23.988;2023-01-15T00:21:09;17.73;;;11.07;;
55146;SDS011;41039;49.830;23.988;2023-01-15T00:23:35;22.95;;;14.25;;
55146;SDS011;41039;49.830;23.988;2023-01-15T00:26:19;27.25;;;17.10;;
55146;SDS011;41039;49.830;23.988;2023-01-15T00:29:04;33.85;;;22.73;;
55146;SDS011;41039;49.830;23.988;2023-01-15T00:31:29;20.13;;;14.43;;
55146;SDS011;41039;49.830;23.988;2023-01-15T00:33:55;14.75;;;9.13;;
55146;SDS011;41039;49.830;23.988;2023-01-15T00:36:21;16.77;;;10.52;;
55146;SDS011;41039;49.830;23.988;2023-01-15T00:38:46;20.65;;;14.23;;
55146;SDS011;41039;49.830;23.988;2023-01-15T00:41:11;30.08;;;19.73;;
55146;SDS011;41039;49.830;23.988;2023-01-15T00:43:37;31.40;;;20.15;;
55146;SDS011;41039;49.830;23.988;2023-01-15T00:46:02;31.83;;;21.38;;
55146;SDS011;41039;49.830;23.988;2023-01-15T00:48:29;34.25;;;21.73;;
55146;SDS011;41039;49.830;23.988;2023-01-15T00:50:54;31.45;;;21.00;;
55146;SDS011;41039;49.830;23.988;2023-01-15T00:53:19;20.20;;;12.43;;
55146;SDS011;41039;49.830;23.988;2023-01-15T00:55:45;21.92;;;13.57;;
55146;SDS011;41039;49.830;23.988;2023-01-15T00:58:10;19.20;;;11.60;;
55146;SDS011;41039;49.830;23.988;2023-01-15T01:00:35;18.75;;;9.93;;
55146;SDS011;41039;49.830;23.988;2023-01-15T01:03:00;20.05;;;13.43;;
55146;SDS011;41039;49.830;23.988;2023-01-15T01:05:25;27.10;;;17.90;;
55146;SDS011;41039;49.830;23.988;2023-01-15T01:07:51;34.72;;;21.25;;
55146;SDS011;41039;49.830;23.988;2023-01-15T01:10:16;31.80;;;20.48;;
55146;SDS011;41039;49.830;23.988;2023-01-15T01:12:41;20.38;;;12.68;;
55146;SDS011;41039;49.830;23.988;2023-01-15T01:15:07;18.48;;;11.45;;
55146;SDS011;41039;49.830;23.988;2023-01-15T01:17:35;21.73;;;13.65;;
55146;SDS011;41039;49.830;23.988;2023-01-15T01:20:00;18.17;;;11.80;;
55146;SDS011;41039;49.830;23.988;2023-01-15T01:22:25;18.48;;;10.88;;
55146;SDS011;41039;49.830;23.988;2023-01-15T01:24:50;13.27;;;8.45;;
55146;SDS011;41039;49.830;23.988;2023-01-15T01:27:16;19.23;;;10.63;;
55146;SDS011;41039;49.830;23.988;2023-01-15T01:29:42;21.27;;;13.18;;
55146;SDS011;41039;49.830;23.988;2023-01-15T01:32:08;22.45;;;15.23;;
55146;SDS011;41039;49.830;23.988;2023-01-15T01:34:33;26.20;;;17.42;;
55146;SDS011;41039;49.830;23.988;2023-01-15T01:36:58;27.33;;;17.17;;
55146;SDS011;41039;49.830;23.988;2023-01-15T01:39:23;32.80;;;20.58;;
55146;SDS011;41039;49.830;23.988;2023-01-15T01:41:49;32.53;;;21.63;;
55146;SDS011;41039;49.830;23.988;2023-01-15T01:46:58;30.83;;;19.52;;
55146;SDS011;41039;49.830;23.988;2023-01-15T01:49:25;31.85;;;19.20;;
55146;SDS011;41039;49.830;23.988;2023-01-15T01:51:53;20.77;;;12.38;;
55146;SDS011;41039;49.830;23.988;2023-01-15T01:54:20;17.05;;;9.55;;
55146;SDS011;41039;49.830;23.988;2023-01-15T01:56:49;17.42;;;9.68;;
55146;SDS011;41039;49.830;23.988;2023-01-15T01:59:16;22.77;;;12.82;;
55146;SDS011;41039;49.830;23.988;2023-01-15T02:01:42;22.17;;;12.77;;
55146;SDS011;41039;49.830;23.988;2023-01-15T02:04:08;23.23;;;13.90;;
55146;SDS011;41039;49.830;23.988;2023-01-15T02:06:34;23.35;;;13.75;;
55146;SDS011;41039;49.830;23.988;2023-01-15T02:08:59;27.92;;;17.00;;
55146;SDS011;41039;49.830;23.988;2023-01-15T02:11:25;22.25;;;13.02;;
55146;SDS011;41039;49.830;23.988;2023-01-15T02:16:22;22.67;;;12.85;;
55146;SDS011;41039;49.830;23.988;2023-01-15T02:21:17;12.32;;;7.15;;
55146;SDS011;41039;49.830;23.988;2023-01-15T02:23:52;15.25;;;9.52;;
55146;SDS011;41039;49.830;23.988;2023-01-15T02:28:53;13.73;;;6.82;;
55146;SDS011;41039;49.830;23.988;2023-01-15T02:34:02;12.57;;;6.93;;
55146;SDS011;41039;49.830;23.988;2023-01-15T02:36:30;13.65;;;8.00;;
55146;SDS011;41039;49.830;23.988;2023-01-15T02:38:57;13.13;;;7.55;;
55146;SDS011;41039;49.830;23.988;2023-01-15T02:41:24;18.15;;;10.90;;
55146;SDS011;41039;49.830;23.988;2023-01-15T02:43:51;16.45;;;9.57;;
55146;SDS011;41039;49.830;23.988;2023-01-15T02:46:18;17.95;;;10.90;;
55146;SDS011;41039;49.830;23.988;2023-01-15T02:48:45;20.05;;;11.98;;
55146;SDS011;41039;49.830;23.988;2023-01-15T02:51:14;26.88;;;16.75;;
55146;SDS011;41039;49.830;23.988;2023-01-15T02:53:40;26.23;;;16.63;;
55146;SDS011;41039;49.830;23.988;2023-01-15T02:56:08;28.05;;;17.88;;
55146;SDS011;41039;49.830;23.988;2023-01-15T02:58:34;26.05;;;16.35;;
55146;SDS011;41039;49.830;23.988;2023-01-15T03:01:03;20.52;;;11.65;;
55146;SDS011;41039;49.830;23.988;2023-01-15T03:03:46;19.98;;;11.38;;
55146;SDS011;41039;49.830;23.988;2023-01-15T03:07:00;18.58;;;10.50;;
55146;SDS011;41039;49.830;23.988;2023-01-15T03:08:58;16.55;;;10.10;;
55146;SDS011;41039;49.830;23.988;2023-01-15T03:11:23;20.77;;;12.32;;
55146;SDS011;41039;49.830;23.988;2023-01-15T03:16:27;25.80;;;16.38;;
55146;SDS011;41039;49.830;23.988;2023-01-15T03:19:04;26.13;;;17.37;;
55146;SDS011;41039;49.830;23.988;2023-01-15T03:21:33;27.50;;;18.30;;
55146;SDS011;41039;49.830;23.988;2023-01-15T03:24:00;23.02;;;14.20;;
55146;SDS011;41039;49.830;23.988;2023-01-15T03:26:26;20.90;;;12.65;;
55146;SDS011;41039;49.830;23.988;2023-01-15T03:28:51;14.55;;;9.38;;
55146;SDS011;41039;49.830;23.988;2023-01-15T03:31:17;20.98;;;12.35;;
55146;SDS011;41039;49.830;23.988;2023-01-15T03:33:42;25.02;;;14.93;;
55146;SDS011;41039;49.830;23.988;2023-01-15T03:36:08;20.95;;;13.90;;
55146;SDS011;41039;49.830;23.988;2023-01-15T03:38:35;26.02;;;17.48;;
55146;SDS011;41039;49.830;23.988;2023-01-15T03:46:14;22.95;;;15.32;;
55146;SDS011;41039;49.830;23.988;2023-01-15T03:48:48;16.17;;;9.27;;
55146;SDS011;41039;49.830;23.988;2023-01-15T03:56:35;11.30;;;6.23;;
55146;SDS011;41039;49.830;23.988;2023-01-15T03:59:03;10.18;;;5.90;;
55146;SDS011;41039;49.830;23.988;2023-01-15T04:01:33;9.75;;;5.05;;
55146;SDS011;41039;49.830;23.988;2023-01-15T04:04:00;10.75;;;6.18;;
55146;SDS011;41039;49.830;23.988;2023-01-15T04:06:26;8.95;;;5.38;;
55146;SDS011;41039;49.830;23.988;2023-01-15T04:08:53;9.43;;;5.63;;
55146;SDS011;41039;49.830;23.988;2023-01-15T04:11:23;9.35;;;5.57;;
55146;SDS011;41039;49.830;23.988;2023-01-15T04:13:48;11.85;;;5.53;;
55146;SDS011;41039;49.830;23.988;2023-01-15T04:16:14;10.50;;;5.70;;
55146;SDS011;41039;49.830;23.988;2023-01-15T04:18:40;10.48;;;6.55;;
55146;SDS011;41039;49.830;23.988;2023-01-15T04:21:05;9.73;;;5.18;;
55146;SDS011;41039;49.830;23.988;2023-01-15T04:23:30;8.63;;;4.80;;
55146;SDS011;41039;49.830;23.988;2023-01-15T04:25:56;9.85;;;6.22;;
55146;SDS011;41039;49.830;23.988;2023-01-15T04:28:21;13.57;;;7.70;;
55146;SDS011;41039;49.830;23.988;2023-01-15T04:30:46;15.15;;;7.63;;
55146;SDS011;41039;49.830;23.988;2023-01-15T04:33:11;12.10;;;6.43;;
55146;SDS011;41039;49.830;23.988;2023-01-15T04:35:37;9.75;;;5.55;;
55146;SDS011;41039;49.830;23.988;2023-01-15T04:38:02;11.40;;;6.32;;
55146;SDS011;41039;49.830;23.988;2023-01-15T04:40:27;13.07;;;6.45;;
55146;SDS011;41039;49.830;23.988;2023-01-15T04:43:11;9.68;;;5.55;;
55146;SDS011;41039;49.830;23.988;2023-01-15T04:45:55;10.38;;;5.32;;
55146;SDS011;41039;49.830;23.988;2023-01-15T04:48:21;12.15;;;6.32;;
55146;SDS011;41039;49.830;23.988;2023-01-15T04:50:46;9.57;;;5.50;;
55146;SDS011;41039;49.830;23.988;2023-01-15T04:53:12;8.73;;;5.10;;
55146;SDS011;41039;49.830;23.988;2023-01-15T04:55:37;8.50;;;4.82;;
55146;SDS011;41039;49.830;23.988;2023-01-15T04:58:02;8.57;;;5.25;;
55146;SDS011;41039;49.830;23.988;2023-01-15T05:00:27;8.98;;;5.20;;
55146;SDS011;41039;49.830;23.988;2023-01-15T05:02:52;9.63;;;5.13;;
55146;SDS011;41039;49.830;23.988;2023-01-15T05:05:18;11.35;;;6.13;;
55146;SDS011;41039;49.830;23.988;2023-01-15T05:07:43;11.68;;;6.25;;
55146;SDS011;41039;49.830;23.988;2023-01-15T05:10:08;9.38;;;5.55;;
55146;SDS011;41039;49.830;23.988;2023-01-15T05:12:34;9.57;;;5.00;;
55146;SDS011;41039;49.830;23.988;2023-01-15T05:14:59;8.82;;;5.07;;
55146;SDS011;41039;49.830;23.988;2023-01-15T05:17:24;9.23;;;4.95;;
55146;SDS011;41039;49.830;23.988;2023-01-15T05:19:49;9.23;;;5.20;;
55146;SDS011;41039;49.830;23.988;2023-01-15T05:22:14;7.90;;;4.25;;
55146;SDS011;41039;49.830;23.988;2023-01-15T05:24:40;8.70;;;5.93;;
55146;SDS011;41039;49.830;23.988;2023-01-15T05:27:05;9.45;;;5.25;;
55146;SDS011;41039;49.830;23.988;2023-01-15T05:29:30;7.93;;;4.95;;
55146;SDS011;41039;49.830;23.988;2023-01-15T05:31:55;9.70;;;5.22;;
55146;SDS011;41039;49.830;23.988;2023-01-15T05:34:21;9.18;;;4.93;;
55146;SDS011;41039;49.830;23.988;2023-01-15T05:36:46;7.85;;;4.68;;
55146;SDS011;41039;49.830;23.988;2023-01-15T05:39:11;8.38;;;4.72;;
55146;SDS011;41039;49.830;23.988;2023-01-15T05:41:36;14.00;;;5.45;;
55146;SDS011;41039;49.830;23.988;2023-01-15T05:44:26;12.55;;;6.80;;
55146;SDS011;41039;49.830;23.988;2023-01-15T05:46:53;9.70;;;5.05;;
55146;SDS011;41039;49.830;23.988;2023-01-15T05:49:20;8.60;;;5.25;;
55146;SDS011;41039;49.830;23.988;2023-01-15T05:51:46;9.15;;;4.93;;
55146;SDS011;41039;49.830;23.988;2023-01-15T05:54:12;8.55;;;4.90;;
55146;SDS011;41039;49.830;23.988;2023-01-15T05:56:38;9.65;;;5.20;;
55146;SDS011;41039;49.830;23.988;2023-01-15T05:59:04;8.52;;;4.70;;
55146;SDS011;41039;49.830;23.988;2023-01-15T06:01:29;9.52;;;5.13;;
55146;SDS011;41039;49.830;23.988;2023-01-15T06:03:58;9.88;;;5.10;;
55146;SDS011;41039;49.830;23.988;2023-01-15T06:06:23;10.68;;;6.07;;
55146;SDS011;41039;49.830;23.988;2023-01-15T06:08:48;9.65;;;4.65;;
55146;SDS011;41039;49.830;23.988;2023-01-15T06:11:14;7.35;;;4.20;;
55146;SDS011;41039;49.830;23.988;2023-01-15T06:13:39;7.53;;;4.50;;
55146;SDS011;41039;49.830;23.988;2023-01-15T06:16:05;9.57;;;5.03;;
55146;SDS011;41039;49.830;23.988;2023-01-15T06:18:30;9.63;;;5.32;;
55146;SDS011;41039;49.830;23.988;2023-01-15T06:21:01;9.15;;;4.97;;
55146;SDS011;41039;49.830;23.988;2023-01-15T06:23:26;9.25;;;4.60;;
55146;SDS011;41039;49.830;23.988;2023-01-15T06:25:51;9.25;;;4.82;;
55146;SDS011;41039;49.830;23.988;2023-01-15T06:28:17;7.25;;;4.53;;
55146;SDS011;41039;49.830;23.988;2023-01-15T06:30:42;6.97;;;4.35;;
55146;SDS011;41039;49.830;23.988;2023-01-15T06:33:07;9.85;;;5.40;;
55146;SDS011;41039;49.830;23.988;2023-01-15T06:35:32;9.40;;;4.97;;
55146;SDS011;41039;49.830;23.988;2023-01-15T06:37:58;8.68;;;4.85;;
55146;SDS011;41039;49.830;23.988;2023-01-15T06:40:23;7.60;;;4.65;;
55146;SDS011;41039;49.830;23.988;2023-01-15T06:42:50;8.98;;;4.95;;
55146;SDS011;41039;49.830;23.988;2023-01-15T06:45:38;11.82;;;5.82;;
55146;SDS011;41039;49.830;23.988;2023-01-15T06:48:22;8.02;;;4.97;;
55146;SDS011;41039;49.830;23.988;2023-01-15T06:50:48;8.32;;;4.75;;
55146;SDS011;41039;49.830;23.988;2023-01-15T06:53:13;9.48;;;4.72;;
55146;SDS011;41039;49.830;23.988;2023-01-15T06:55:38;8.57;;;4.85;;
55146;SDS011;41039;49.830;23.988;2023-01-15T06:58:04;9.55;;;5.20;;
55146;SDS011;41039;49.830;23.988;2023-01-15T07:00:29;11.38;;;6.22;;
55146;SDS011;41039;49.830;23.988;2023-01-15T07:02:54;8.75;;;4.53;;
55146;SDS011;41039;49.830;23.988;2023-01-15T07:05:20;9.00;;;5.38;;
55146;SDS011;41039;49.830;23.988;2023-01-15T07:07:45;8.15;;;4.95;;
55146;SDS011;41039;49.830;23.988;2023-01-15T07:10:10;10.38;;;6.20;;
55146;SDS011;41039;49.830;23.988;2023-01-15T07:12:35;8.20;;;5.38;;
55146;SDS011;41039;49.830;23.988;2023-01-15T07:15:01;10.63;;;6.03;;
55146;SDS011;41039;49.830;23.988;2023-01-15T07:17:26;11.35;;;5.43;;
55146;SDS011;41039;49.830;23.988;2023-01-15T07:19:51;9.68;;;5.47;;
55146;SDS011;41039;49.830;23.988;2023-01-15T07:22:16;9.65;;;5.25;;
55146;SDS011;41039;49.830;23.988;2023-01-15T07:24:42;7.18;;;4.47;;
55146;SDS011;41039;49.830;23.988;2023-01-15T07:27:07;9.18;;;5.60;;
55146;SDS011;41039;49.830;23.988;2023-01-15T07:29:32;9.38;;;5.65;;
55146;SDS011;41039;49.830;23.988;2023-01-15T07:31:57;8.80;;;5.15;;
55146;SDS011;41039;49.830;23.988;2023-01-15T07:34:23;9.95;;;5.18;;
55146;SDS011;41039;49.830;23.988;2023-01-15T07:36:48;9.68;;;5.25;;
55146;SDS011;41039;49.830;23.988;2023-01-15T07:39:13;8.63;;;4.90;;
55146;SDS011;41039;49.830;23.988;2023-01-15T07:41:39;8.30;;;5.38;;
55146;SDS011;41039;49.830;23.988;2023-01-15T07:44:23;10.20;;;5.28;;
55146;SDS011;41039;49.830;23.988;2023-01-15T07:47:09;9.65;;;5.63;;
55146;SDS011;41039;49.830;23.988;2023-01-15T07:49:56;10.15;;;5.57;;
55146;SDS011;41039;49.830;23.988;2023-01-15T07:52:22;8.15;;;4.57;;
55146;SDS011;41039;49.830;23.988;2023-01-15T07:54:48;9.50;;;5.18;;
55146;SDS011;41039;49.830;23.988;2023-01-15T07:57:14;9.10;;;5.75;;
55146;SDS011;41039;49.830;23.988;2023-01-15T07:59:40;9.38;;;5.50;;
55146;SDS011;41039;49.830;23.988;2023-01-15T08:02:05;8.55;;;5.15;;
55146;SDS011;41039;49.830;23.988;2023-01-15T08:04:31;8.48;;;5.30;;
55146;SDS011;41039;49.830;23.988;2023-01-15T08:06:59;11.77;;;5.85;;
55146;SDS011;41039;49.830;23.988;2023-01-15T08:09:25;9.98;;;5.50;;
55146;SDS011;41039;49.830;23.988;2023-01-15T08:11:51;8.27;;;5.35;;
55146;SDS011;41039;49.830;23.988;2023-01-15T08:14:34;10.77;;;6.53;;
55146;SDS011;41039;49.830;23.988;2023-01-15T08:17:18;9.68;;;6.22;;
55146;SDS011;41039;49.830;23.988;2023-01-15T08:19:44;11.52;;;5.65;;
55146;SDS011;41039;49.830;23.988;2023-01-15T08:22:09;10.63;;;6.18;;
55146;SDS011;41039;49.830;23.988;2023-01-15T08:24:35;10.00;;;6.25;;
55146;SDS011;41039;49.830;23.988;2023-01-15T08:27:00;11.32;;;6.15;;
55146;SDS011;41039;49.830;23.988;2023-01-15T08:29:26;10.05;;;5.82;;
55146;SDS011;41039;49.830;23.988;2023-01-15T08:31:51;10.10;;;5.65;;
55146;SDS011;41039;49.830;23.988;2023-01-15T08:34:16;9.85;;;6.38;;
55146;SDS011;41039;49.830;23.988;2023-01-15T08:36:43;9.32;;;6.18;;
55146;SDS011;41039;49.830;23.988;2023-01-15T08:39:08;9.85;;;5.97;;
55146;SDS011;41039;49.830;23.988;2023-01-15T08:41:33;8.93;;;5.55;;
55146;SDS011;41039;49.830;23.988;2023-01-15T08:43:59;9.93;;;6.25;;
55146;SDS011;41039;49.830;23.988;2023-01-15T08:46:24;8.95;;;5.55;;
55146;SDS011;41039;49.830;23.988;2023-01-15T08:48:49;8.65;;;5.45;;
55146;SDS011;41039;49.830;23.988;2023-01-15T08:51:15;10.75;;;5.80;;
55146;SDS011;41039;49.830;23.988;2023-01-15T08:53:40;10.77;;;6.22;;
55146;SDS011;41039;49.830;23.988;2023-01-15T08:56:15;11.15;;;6.03;;
55146;SDS011;41039;49.830;23.988;2023-01-15T08:58:40;10.57;;;6.18;;
55146;SDS011;41039;49.830;23.988;2023-01-15T09:01:07;9.23;;;5.57;;
55146;SDS011;41039;49.830;23.988;2023-01-15T09:03:32;10.57;;;6.50;;
55146;SDS011;41039;49.830;23.988;2023-01-15T09:05:58;9.75;;;6.13;;
55146;SDS011;41039;49.830;23.988;2023-01-15T09:08:23;12.15;;;7.05;;
55146;SDS011;41039;49.830;23.988;2023-01-15T09:10:49;10.27;;;5.72;;
55146;SDS011;41039;49.830;23.988;2023-01-15T09:13:14;8.02;;;5.00;;
55146;SDS011;41039;49.830;23.988;2023-01-15T09:15:39;8.70;;;5.50;;
55146;SDS011;41039;49.830;23.988;2023-01-15T09:18:04;11.80;;;5.28;;
55146;SDS011;41039;49.830;23.988;2023-01-15T09:20:30;7.90;;;5.00;;
55146;SDS011;41039;49.830;23.988;2023-01-15T09:22:55;9.15;;;5.22;;
55146;SDS011;41039;49.830;23.988;2023-01-15T09:25:20;9.85;;;5.93;;
55146;SDS011;41039;49.830;23.988;2023-01-15T09:27:47;10.70;;;5.22;;
55146;SDS011;41039;49.830;23.988;2023-01-15T09:30:18;9.02;;;5.00;;
55146;SDS011;41039;49.830;23.988;2023-01-15T09:32:43;7.93;;;5.13;;
55146;SDS011;41039;49.830;23.988;2023-01-15T09:35:09;9.52;;;6.10;;
55146;SDS011;41039;49.830;23.988;2023-01-15T09:37:34;11.07;;;6.07;;
55146;SDS011;41039;49.830;23.988;2023-01-15T09:39:59;9.50;;;5.60;;
55146;SDS011;41039;49.830;23.988;2023-01-15T09:57:30;10.02;;;5.78;;
55146;SDS011;41039;49.830;23.988;2023-01-15T09:59:56;8.70;;;5.15;;
55146;SDS011;41039;49.830;23.988;2023-01-15T10:05:08;9.27;;;5.03;;
55146;SDS011;41039;49.830;23.988;2023-01-15T10:07:49;7.38;;;4.80;;
55146;SDS011;41039;49.830;23.988;2023-01-15T10:10:16;9.90;;;5.72;;
55146;SDS011;41039;49.830;23.988;2023-01-15T10:12:43;8.85;;;4.93;;
55146;SDS011;41039;49.830;23.988;2023-01-15T10:17:40;8.25;;;5.30;;
55146;SDS011;41039;49.830;23.988;2023-01-15T10:25:08;12.50;;;7.43;;
55146;SDS011;41039;49.830;23.988;2023-01-15T10:27:38;8.18;;;5.57;;
55146;SDS011;41039;49.830;23.988;2023-01-15T10:35:01;9.05;;;5.60;;
55146;SDS011;41039;49.830;23.988;2023-01-15T10:40:04;7.72;;;5.07;;
55146;SDS011;41039;49.830;23.988;2023-01-15T10:47:30;7.82;;;5.07;;
55146;SDS011;41039;49.830;23.988;2023-01-15T10:49:57;7.97;;;5.22;;
55146;SDS011;41039;49.830;23.988;2023-01-15T10:52:25;10.90;;;6.00;;
55146;SDS011;41039;49.830;23.988;2023-01-15T11:00:10;9.82;;;6.57;;
55146;SDS011;41039;49.830;23.988;2023-01-15T11:02:39;8.55;;;5.63;;
55146;SDS011;41039;49.830;23.988;2023-01-15T11:05:10;8.63;;;5.78;;
55146;SDS011;41039;49.830;23.988;2023-01-15T11:10:02;11.27;;;7.05;;
55146;SDS011;41039;49.830;23.988;2023-01-15T11:12:29;10.55;;;5.60;;
55146;SDS011;41039;49.830;23.988;2023-01-15T11:15:14;10.43;;;5.57;;
55146;SDS011;41039;49.830;23.988;2023-01-15T11:17:59;9.38;;;5.70;;
55146;SDS011;41039;49.830;23.988;2023-01-15T11:20:44;10.43;;;5.82;;
55146;SDS011;41039;49.830;23.988;2023-01-15T11:23:14;9.10;;;6.57;;
55146;SDS011;41039;49.830;23.988;2023-01-15T11:25:46;12.57;;;5.50;;
55146;SDS011;41039;49.830;23.988;2023-01-15T11:28:12;10.37;;;5.57;;
55146;SDS011;41039;49.830;23.988;2023-01-15T11:30:39;9.52;;;5.38;;
55146;SDS011;41039;49.830;23.988;2023-01-15T11:33:05;10.00;;;6.13;;
55146;SDS011;41039;49.830;23.988;2023-01-15T11:35:47;11.05;;;6.25;;
55146;SDS011;41039;49.830;23.988;2023-01-15T11:38:13;9.52;;;5.88;;
55146;SDS011;41039;49.830;23.988;2023-01-15T11:40:38;16.02;;;6.43;;
55146;SDS011;41039;49.830;23.988;2023-01-15T11:43:16;9.05;;;5.57;;
55146;SDS011;41039;49.830;23.988;2023-01-15T11:46:01;11.52;;;6.13;;
55146;SDS011;41039;49.830;23.988;2023-01-15T11:48:46;9.13;;;5.75;;
55146;SDS011;41039;49.830;23.988;2023-01-15T11:51:31;11.25;;;6.55;;
55146;SDS011;41039;49.830;23.988;2023-01-15T11:54:02;9.65;;;6.35;;
55146;SDS011;41039;49.830;23.988;2023-01-15T11:56:29;11.38;;;6.90;;
55146;SDS011;41039;49.830;23.988;2023-01-15T11:58:56;10.10;;;5.57;;
55146;SDS011;41039;49.830;23.988;2023-01-15T12:01:33;10.73;;;6.10;;
55146;SDS011;41039;49.830;23.988;2023-01-15T12:04:00;11.93;;;6.65;;
55146;SDS011;41039;49.830;23.988;2023-01-15T12:06:26;11.27;;;6.47;;
55146;SDS011;41039;49.830;23.988;2023-01-15T12:08:59;9.70;;;5.85;;
55146;SDS011;41039;49.830;23.988;2023-01-15T12:24:33;12.18;;;6.68;;
55146;SDS011;41039;49.830;23.988;2023-01-15T12:29:45;17.92;;;7.13;;
55146;SDS011;41039;49.830;23.988;2023-01-15T12:32:16;10.32;;;6.93;;
55146;SDS011;41039;49.830;23.988;2023-01-15T12:34:58;10.75;;;6.32;;
55146;SDS011;41039;49.830;23.988;2023-01-15T12:37:27;10.75;;;6.15;;
55146;SDS011;41039;49.830;23.988;2023-01-15T12:42:22;10.35;;;6.45;;
55146;SDS011;41039;49.830;23.988;2023-01-15T12:45:11;12.55;;;6.72;;
55146;SDS011;41039;49.830;23.988;2023-01-15T12:47:43;10.55;;;6.22;;
55146;SDS011;41039;49.830;23.988;2023-01-15T12:52:49;11.45;;;6.57;;
55146;SDS011;41039;49.830;23.988;2023-01-15T12:55:19;10.93;;;6.35;;
55146;SDS011;41039;49.830;23.988;2023-01-15T12:57:47;19.45;;;6.18;;
55146;SDS011;41039;49.830;23.988;2023-01-15T13:00:14;11.98;;;6.22;;
55146;SDS011;41039;49.830;23.988;2023-01-15T13:02:59;11.35;;;6.00;;
55146;SDS011;41039;49.830;23.988;2023-01-15T13:07:57;10.60;;;6.68;;
55146;SDS011;41039;49.830;23.988;2023-01-15T13:10:27;10.75;;;6.57;;
55146;SDS011;41039;49.830;23.988;2023-01-15T13:12:54;9.73;;;5.60;;
55146;SDS011;41039;49.830;23.988;2023-01-15T13:15:25;10.40;;;6.20;;
55146;SDS011;41039;49.830;23.988;2023-01-15T13:18:14;12.50;;;7.25;;
55146;SDS011;41039;49.830;23.988;2023-01-15T13:20:42;11.65;;;6.65;;
55146;SDS011;41039;49.830;23.988;2023-01-15T13:33:34;14.38;;;7.57;;
55146;SDS011;41039;49.830;23.988;2023-01-15T13:36:10;13.10;;;7.03;;
55146;SDS011;41039;49.830;23.988;2023-01-15T13:38:44;12.02;;;6.70;;
55146;SDS011;41039;49.830;23.988;2023-01-15T13:41:13;13.93;;;6.90;;
55146;SDS011;41039;49.830;23.988;2023-01-15T13:43:40;11.25;;;6.97;;
55146;SDS011;41039;49.830;23.988;2023-01-15T13:46:07;15.18;;;7.15;;
55146;SDS011;41039;49.830;23.988;2023-01-15T13:48:34;14.38;;;6.70;;
55146;SDS011;41039;49.830;23.988;2023-01-15T13:51:01;9.57;;;5.80;;
55146;SDS011;41039;49.830;23.988;2023-01-15T13:53:27;12.82;;;7.15;;
55146;SDS011;41039;49.830;23.988;2023-01-15T13:56:04;9.88;;;6.63;;
55146;SDS011;41039;49.830;23.988;2023-01-15T13:58:31;12.52;;;6.68;;
55146;SDS011;41039;49.830;23.988;2023-01-15T14:01:08;13.52;;;6.25;;
55146;SDS011;41039;49.830;23.988;2023-01-15T14:06:45;12.18;;;6.88;;
55146;SDS011;41039;49.830;23.988;2023-01-15T14:24:49;14.90;;;7.60;;
55146;SDS011;41039;49.830;23.988;2023-01-15T14:27:29;11.98;;;6.57;;
55146;SDS011;41039;49.830;23.988;2023-01-15T14:35:11;11.73;;;6.03;;
55146;SDS011;41039;49.830;23.988;2023-01-15T14:40:16;14.88;;;5.55;;
55146;SDS011;41039;49.830;23.988;2023-01-15T14:42:42;9.70;;;5.57;;
55146;SDS011;41039;49.830;23.988;2023-01-15T14:47:51;8.32;;;5.43;;
55146;SDS011;41039;49.830;23.988;2023-01-15T14:52:49;9.75;;;5.40;;
55146;SDS011;41039;49.830;23.988;2023-01-15T14:55:16;8.48;;;4.80;;
55146;SDS011;41039;49.830;23.988;2023-01-15T14:57:42;8.02;;;4.97;;
55146;SDS011;41039;49.830;23.988;2023-01-15T15:00:12;10.10;;;5.90;;
55146;SDS011;41039;49.830;23.988;2023-01-15T15:02:40;11.57;;;5.40;;
55146;SDS011;41039;49.830;23.988;2023-01-15T15:05:14;9.93;;;5.43;;
55146;SDS011;41039;49.830;23.988;2023-01-15T15:07:45;9.52;;;5.40;;
55146;SDS011;41039;49.830;23.988;2023-01-15T15:10:20;12.63;;;5.97;;
55146;SDS011;41039;49.830;23.988;2023-01-15T15:12:51;12.85;;;6.93;;
55146;SDS011;41039;49.830;23.988;2023-01-15T15:26:30;7.57;;;4.50;;
55146;SDS011;41039;49.830;23.988;2023-01-15T15:28:59;9.18;;;5.05;;
55146;SDS011;41039;49.830;23.988;2023-01-15T15:31:25;8.48;;;4.90;;
55146;SDS011;41039;49.830;23.988;2023-01-15T15:33:51;9.13;;;5.68;;
55146;SDS011;41039;49.830;23.988;2023-01-15T15:36:17;9.45;;;6.05;;
55146;SDS011;41039;49.830;23.988;2023-01-15T15:38:50;8.50;;;4.82;;
55146;SDS011;41039;49.830;23.988;2023-01-15T15:41:16;8.57;;;5.80;;
55146;SDS011;41039;49.830;23.988;2023-01-15T15:44:01;9.98;;;5.18;;
55146;SDS011;41039;49.830;23.988;2023-01-15T15:46:48;9.30;;;4.70;;
55146;SDS011;41039;49.830;23.988;2023-01-15T15:49:38;7.70;;;4.93;;
55146;SDS011;41039;49.830;23.988;2023-01-15T15:52:13;9.35;;;5.40;;
55146;SDS011;41039;49.830;23.988;2023-01-15T15:54:39;10.95;;;5.75;;
55146;SDS011;41039;49.830;23.988;2023-01-15T15:57:14;10.23;;;5.88;;
55146;SDS011;41039;49.830;23.988;2023-01-15T15:59:45;10.38;;;5.20;;
55146;SDS011;41039;49.830;23.988;2023-01-15T16:02:16;16.90;;;11.18;;
55146;SDS011;41039;49.830;23.988;2023-01-15T16:04:49;15.45;;;9.05;;
55146;SDS011;41039;49.830;23.988;2023-01-15T16:07:31;19.35;;;13.27;;
55146;SDS011;41039;49.830;23.988;2023-01-15T16:12:35;26.13;;;12.98;;
55146;SDS011;41039;49.830;23.988;2023-01-15T16:15:04;23.15;;;15.18;;
55146;SDS011;41039;49.830;23.988;2023-01-15T16:17:30;33.15;;;20.05;;
55146;SDS011;41039;49.830;23.988;2023-01-15T16:19:56;23.92;;;16.08;;
55146;SDS011;41039;49.830;23.988;2023-01-15T16:22:21;32.47;;;18.08;;
55146;SDS011;41039;49.830;23.988;2023-01-15T16:24:54;28.25;;;11.57;;
55146;SDS011;41039;49.830;23.988;2023-01-15T16:27:20;26.52;;;11.77;;
55146;SDS011;41039;49.830;23.988;2023-01-15T16:29:50;16.23;;;10.20;;
55146;SDS011;41039;49.830;23.988;2023-01-15T16:32:16;22.55;;;14.32;;
55146;SDS011;41039;49.830;23.988;2023-01-15T16:34:44;31.55;;;18.77;;
55146;SDS011;41039;49.830;23.988;2023-01-15T16:37:20;35.25;;;23.08;;
55146;SDS011;41039;49.830;23.988;2023-01-15T16:39:47;29.67;;;19.35;;
55146;SDS011;41039;49.830;23.988;2023-01-15T16:42:23;23.05;;;14.75;;
55146;SDS011;41039;49.830;23.988;2023-01-15T16:44:53;26.60;;;16.70;;
55146;SDS011;41039;49.830;23.988;2023-01-15T16:47:29;29.50;;;17.65;;
55146;SDS011;41039;49.830;23.988;2023-01-15T16:50:40;90.60;;;45.25;;
55146;SDS011;41039;49.830;23.988;2023-01-15T17:00:38;20.10;;;11.15;;
55146;SDS011;41039;49.830;23.988;2023-01-15T17:03:09;22.83;;;12.55;;
55146;SDS011;41039;49.830;23.988;2023-01-15T17:05:35;21.25;;;12.25;;
55146;SDS011;41039;49.830;23.988;2023-01-15T17:08:01;21.90;;;11.95;;
55146;SDS011;41039;49.830;23.988;2023-01-15T17:10:27;23.42;;;12.15;;